Time;durP1;ratioP1;P1;durP2;ratioP2;P2;SDS_P1;SDS_P2;PMS_P1;PMS_P2;Temp;Humidity;BMP_temperature;BMP_pressure;BME280_temperature;BME280_humidity;BME280_pressure;Samples;Min_cycle;Max_cycle;Signal;HPM_P1;HPM_P2
2023/03/25 00:00:29;;;;;;;27.57;14.27;;;14.70;70.60;;;;;;6053127;23;20214;-75
2023/03/25 00:02:58;;;;;;;32.93;15.03;;;14.70;70.80;;;;;;6065693;23;20186;-74
2023/03/25 00:05:27;;;;;;;31.80;14.43;;;14.60;70.80;;;;;;6064404;23;20675;-75
2023/03/25 00:07:56;;;;;;;26.33;14.50;;;14.60;70.90;;;;;;6064813;23;20633;-75
2023/03/25 00:10:24;;;;;;;31.67;16.50;;;14.50;70.90;;;;;;6065862;23;20189;-75
2023/03/25 00:12:52;;;;;;;35.37;15.50;;;14.50;71.10;;;;;;6063239;23;20234;-75
2023/03/25 00:15:21;;;;;;;31.10;16.27;;;14.50;71.20;;;;;;6066118;23;20241;-74
2023/03/25 00:17:49;;;;;;;27.67;14.87;;;14.50;71.20;;;;;;6062222;23;20502;-75
2023/03/25 00:20:20;;;;;;;26.37;15.67;;;14.40;71.20;;;;;;6064045;23;20258;-75
2023/03/25 00:22:48;;;;;;;28.50;15.43;;;14.40;71.20;;;;;;6063096;23;20166;-75
2023/03/25 00:25:19;;;;;;;38.93;16.93;;;14.40;71.30;;;;;;6065845;23;20178;-74
2023/03/25 00:27:49;;;;;;;33.10;16.33;;;14.40;71.40;;;;;;6065436;23;20226;-75
2023/03/25 00:30:19;;;;;;;30.43;16.60;;;14.30;71.40;;;;;;6066100;23;20159;-75
2023/03/25 00:32:51;;;;;;;28.70;16.23;;;14.30;71.50;;;;;;6065113;23;20166;-74
2023/03/25 00:35:22;;;;;;;38.33;15.43;;;14.30;71.70;;;;;;6066130;23;20171;-74
2023/03/25 00:37:56;;;;;;;29.30;15.27;;;14.30;72.60;;;;;;6063618;23;20623;-75
2023/03/25 00:40:27;;;;;;;30.90;16.30;;;14.20;71.70;;;;;;6064308;23;20189;-74
2023/03/25 00:42:56;;;;;;;32.73;15.13;;;14.20;71.80;;;;;;6063012;23;20167;-74
2023/03/25 00:45:24;;;;;;;34.33;16.47;;;14.20;71.90;;;;;;6062894;23;20179;-76
2023/03/25 00:47:52;;;;;;;30.23;16.40;;;14.10;72.00;;;;;;6063859;23;20632;-76
2023/03/25 00:50:23;;;;;;;35.57;15.23;;;14.10;72.10;;;;;;6064677;23;20182;-75
2023/03/25 00:52:52;;;;;;;32.03;15.50;;;14.10;72.20;;;;;;6063533;23;20159;-76
2023/03/25 00:55:21;;;;;;;36.53;16.80;;;14.00;72.30;;;;;;6064934;23;20226;-76
2023/03/25 00:57:49;;;;;;;32.77;16.23;;;14.00;72.30;;;;;;6062878;23;20209;-75
2023/03/25 01:00:19;;;;;;;29.90;15.03;;;14.00;72.50;;;;;;6064907;23;20552;-75
2023/03/25 01:02:52;;;;;;;36.33;15.40;;;13.90;72.60;;;;;;6062716;23;20175;-75
2023/03/25 01:05:24;;;;;;;28.27;15.57;;;13.90;72.60;;;;;;6065447;23;20233;-75
2023/03/25 01:07:52;;;;;;;31.43;16.03;;;13.90;72.70;;;;;;6065184;23;20531;-75
2023/03/25 01:10:21;;;;;;;32.63;14.97;;;13.80;72.70;;;;;;6062333;23;20222;-75
2023/03/25 01:12:49;;;;;;;30.10;15.97;;;13.80;72.80;;;;;;6062999;23;20297;-75
2023/03/25 01:15:17;;;;;;;34.13;15.93;;;13.80;72.80;;;;;;6065555;23;20182;-75
2023/03/25 01:17:46;;;;;;;24.40;14.43;;;13.80;72.90;;;;;;6061838;23;20245;-75
2023/03/25 01:20:14;;;;;;;28.37;15.33;;;13.70;72.90;;;;;;6065913;23;20174;-75
2023/03/25 01:22:44;;;;;;;30.87;14.97;;;13.70;73.00;;;;;;6062688;23;20179;-76
2023/03/25 01:25:12;;;;;;;30.57;15.73;;;13.70;73.10;;;;;;6064794;23;20204;-76
2023/03/25 01:27:41;;;;;;;34.83;14.60;;;13.60;73.10;;;;;;6064153;23;20198;-75
2023/03/25 01:30:11;;;;;;;27.30;15.03;;;13.60;73.20;;;;;;6063874;23;20182;-75
2023/03/25 01:32:39;;;;;;;31.27;15.27;;;13.60;74.10;;;;;;6063264;23;20182;-76
2023/03/25 01:35:09;;;;;;;27.97;14.77;;;13.50;74.10;;;;;;6062229;23;20261;-75
2023/03/25 01:37:38;;;;;;;31.07;15.20;;;13.50;73.30;;;;;;6063666;23;20632;-76
2023/03/25 01:40:10;;;;;;;35.10;15.90;;;13.50;73.50;;;;;;6062778;23;20201;-75
2023/03/25 01:42:39;;;;;;;30.97;17.30;;;13.50;73.50;;;;;;6064080;23;20593;-76
2023/03/25 01:45:22;;;;;;;30.73;14.77;;;13.40;73.60;;;;;;6064505;23;20633;-75
2023/03/25 01:47:57;;;;;;;33.10;15.00;;;13.40;73.70;;;;;;6063222;23;20238;-76
2023/03/25 01:50:27;;;;;;;26.83;14.33;;;13.30;73.70;;;;;;6064957;23;20593;-75
2023/03/25 01:52:58;;;;;;;28.87;14.93;;;13.30;73.70;;;;;;6064621;23;20194;-74
2023/03/25 01:55:28;;;;;;;28.80;17.10;;;13.30;73.80;;;;;;6060968;23;20535;-75
2023/03/25 01:57:58;;;;;;;29.57;15.90;;;13.30;75.20;;;;;;6062221;23;20198;-75
2023/03/25 02:00:27;;;;;;;27.67;14.60;;;13.20;74.90;;;;;;6064151;23;20183;-75
2023/03/25 02:02:59;;;;;;;28.17;14.30;;;13.20;74.80;;;;;;6067669;23;20185;-75
2023/03/25 02:05:34;;;;;;;26.23;13.93;;;13.20;74.70;;;;;;6065818;23;20190;-75
2023/03/25 02:08:07;;;;;;;28.47;14.63;;;13.20;74.70;;;;;;6063398;23;20648;-75
2023/03/25 02:10:38;;;;;;;31.00;14.83;;;13.20;74.70;;;;;;6064462;23;20165;-75
2023/03/25 02:13:07;;;;;;;30.70;14.60;;;13.10;74.70;;;;;;6067572;23;20182;-75
2023/03/25 02:15:50;;;;;;;30.40;15.63;;;13.10;74.80;;;;;;6064321;23;20636;-76
2023/03/25 02:18:35;;;;;;;28.73;14.50;;;13.10;74.80;;;;;;6064624;23;20163;-75
2023/03/25 02:21:44;;;;;;;37.67;15.13;;;13.10;74.80;;;;;;6063046;23;20660;-75
2023/03/25 02:24:56;;;;;;;29.27;15.37;;;13.10;74.90;;;;;;6066835;23;20214;-75
2023/03/25 02:27:46;;;;;;;31.00;15.80;;;13.00;74.90;;;;;;6065446;23;20286;-75
2023/03/25 02:30:37;;;;;;;30.57;14.77;;;13.00;74.90;;;;;;6062618;23;20167;-75
2023/03/25 02:33:34;;;;;;;31.10;14.90;;;12.90;74.90;;;;;;6065053;23;20266;-75
2023/03/25 02:36:41;;;;;;;31.93;14.57;;;12.90;75.00;;;;;;6067197;23;20173;-75
2023/03/25 02:39:14;;;;;;;30.00;15.90;;;12.90;75.10;;;;;;5991583;23;20182;-75
2023/03/25 02:41:50;;;;;;;28.27;15.17;;;12.90;75.10;;;;;;6065820;23;20230;-75
2023/03/25 02:44:28;;;;;;;27.30;16.33;;;12.80;75.00;;;;;;6066669;23;20173;-75
2023/03/25 02:47:00;;;;;;;30.27;15.77;;;12.80;75.00;;;;;;6063446;23;20640;-75
2023/03/25 02:49:32;;;;;;;31.20;16.20;;;12.80;75.20;;;;;;6066932;23;20167;-75
2023/03/25 02:52:05;;;;;;;28.90;14.80;;;12.80;75.20;;;;;;6065420;23;20181;-75
2023/03/25 02:54:38;;;;;;;28.70;15.87;;;12.80;75.20;;;;;;6066399;23;20218;-75
2023/03/25 02:57:08;;;;;;;29.93;15.00;;;12.80;75.30;;;;;;6064682;23;20206;-75
2023/03/25 02:59:38;;;;;;;29.70;15.60;;;12.80;75.30;;;;;;6066128;23;20162;-76
2023/03/25 03:02:10;;;;;;;25.80;14.37;;;12.80;75.40;;;;;;6064740;23;20166;-75
2023/03/25 03:04:47;;;;;;;28.97;14.60;;;12.80;75.50;;;;;;6065068;23;20246;-75
2023/03/25 03:07:23;;;;;;;28.13;13.93;;;12.80;75.60;;;;;;6064882;23;20238;-75
2023/03/25 03:10:00;;;;;;;34.43;15.50;;;12.70;75.60;;;;;;6063772;23;20166;-74
2023/03/25 03:12:45;;;;;;;33.67;15.67;;;12.70;75.60;;;;;;6065955;23;20159;-76
2023/03/25 03:15:25;;;;;;;31.03;14.37;;;12.70;75.70;;;;;;6064535;23;20193;-74
2023/03/25 03:18:14;;;;;;;33.83;14.93;;;12.70;75.80;;;;;;6064198;23;20167;-75
2023/03/25 03:20:53;;;;;;;27.97;14.87;;;12.70;75.90;;;;;;6065368;23;20166;-75
2023/03/25 03:23:27;;;;;;;30.23;16.30;;;12.70;75.90;;;;;;6065860;23;20170;-74
2023/03/25 03:26:03;;;;;;;30.58;16.63;;;12.60;75.90;;;;;;6059258;23;20399;-75
2023/03/25 03:28:36;;;;;;;26.43;15.00;;;12.60;77.40;;;;;;6065415;23;20185;-74
2023/03/25 03:31:07;;;;;;;32.17;14.53;;;12.60;77.10;;;;;;6063398;23;20214;-74
2023/03/25 03:33:42;;;;;;;27.83;14.93;;;12.60;77.00;;;;;;6065573;23;20162;-76
2023/03/25 03:36:14;;;;;;;29.53;15.77;;;12.60;76.90;;;;;;6064299;23;20201;-74
2023/03/25 03:38:48;;;;;;;30.40;15.47;;;12.60;76.90;;;;;;6064484;23;20159;-74
2023/03/25 03:41:22;;;;;;;36.23;16.37;;;12.60;77.10;;;;;;6064288;23;20635;-74
2023/03/25 03:43:56;;;;;;;28.37;14.83;;;12.60;77.10;;;;;;6066540;23;20162;-75
2023/03/25 03:46:29;;;;;;;34.70;16.17;;;12.60;77.10;;;;;;6066371;23;20219;-75
2023/03/25 03:49:00;;;;;;;32.53;15.80;;;12.60;77.00;;;;;;6063485;23;20178;-75
2023/03/25 03:51:34;;;;;;;29.13;16.07;;;12.60;77.10;;;;;;6065072;23;20167;-75
2023/03/25 03:54:08;;;;;;;28.87;15.20;;;12.60;77.90;;;;;;6065861;23;20166;-75
2023/03/25 03:56:45;;;;;;;30.33;16.23;;;12.60;77.10;;;;;;6063464;23;20162;-75
2023/03/25 03:59:20;;;;;;;31.03;16.20;;;12.50;77.00;;;;;;6064266;23;20161;-75
2023/03/25 04:01:56;;;;;;;29.57;15.13;;;12.60;77.10;;;;;;6061108;23;20159;-74
2023/03/25 04:04:25;;;;;;;27.37;15.60;;;12.50;77.00;;;;;;6065324;23;20695;-74
2023/03/25 04:06:58;;;;;;;27.37;15.23;;;12.50;76.90;;;;;;6064340;23;20197;-74
2023/03/25 04:09:32;;;;;;;29.30;16.00;;;12.50;77.30;;;;;;6064570;23;20186;-74
2023/03/25 04:12:08;;;;;;;35.97;15.97;;;12.50;77.20;;;;;;6064476;23;20162;-74
2023/03/25 04:14:37;;;;;;;26.00;15.80;;;12.50;77.20;;;;;;6064995;23;20166;-75
2023/03/25 04:17:06;;;;;;;28.90;15.13;;;12.50;77.20;;;;;;6064685;23;20186;-74
2023/03/25 04:19:34;;;;;;;30.57;15.70;;;12.50;77.30;;;;;;6062987;23;20633;-74
2023/03/25 04:22:04;;;;;;;32.13;16.30;;;12.40;77.30;;;;;;6064540;23;20182;-75
2023/03/25 04:24:36;;;;;;;30.43;15.30;;;12.40;77.40;;;;;;6066710;23;20179;-75
2023/03/25 04:27:08;;;;;;;29.47;15.20;;;12.40;78.20;;;;;;6065568;23;20238;-74
2023/03/25 04:29:38;;;;;;;32.27;16.53;;;12.40;77.50;;;;;;6065188;23;20493;-75
2023/03/25 04:32:08;;;;;;;36.30;17.70;;;12.40;77.50;;;;;;6064318;23;20203;-74
2023/03/25 04:34:37;;;;;;;37.47;16.97;;;12.30;77.40;;;;;;6064695;23;20181;-75
2023/03/25 04:37:05;;;;;;;39.43;17.33;;;12.40;77.50;;;;;;6064037;23;20510;-75
2023/03/25 04:39:34;;;;;;;36.47;17.60;;;12.40;77.70;;;;;;6063373;23;20545;-74
2023/03/25 04:42:03;;;;;;;28.00;16.97;;;12.40;78.00;;;;;;6065360;23;20703;-75
2023/03/25 04:44:37;;;;;;;30.10;16.97;;;12.50;78.00;;;;;;6065172;23;20552;-75
2023/03/25 04:47:10;;;;;;;41.43;18.27;;;12.60;78.00;;;;;;6065727;23;20180;-74
2023/03/25 04:49:40;;;;;;;30.83;16.90;;;12.60;77.70;;;;;;6063289;23;20560;-75
2023/03/25 04:52:09;;;;;;;28.13;16.53;;;12.60;77.60;;;;;;6064809;23;20229;-75
2023/03/25 04:54:38;;;;;;;30.57;16.20;;;12.60;77.60;;;;;;6063330;23;20179;-75
2023/03/25 04:57:08;;;;;;;28.17;15.40;;;12.60;77.70;;;;;;6065681;23;20564;-75
2023/03/25 04:59:38;;;;;;;31.63;16.60;;;12.60;77.90;;;;;;6064163;23;20155;-75
2023/03/25 05:02:11;;;;;;;30.33;16.37;;;12.60;77.80;;;;;;6064561;23;20503;-74
2023/03/25 05:04:46;;;;;;;29.37;16.13;;;12.60;77.90;;;;;;6064554;23;20169;-74
2023/03/25 05:07:17;;;;;;;33.67;17.27;;;12.60;77.90;;;;;;6062546;23;20193;-74
2023/03/25 05:09:46;;;;;;;29.17;16.20;;;12.70;78.10;;;;;;6062974;23;20613;-74
2023/03/25 05:12:14;;;;;;;34.47;17.23;;;12.70;78.00;;;;;;6063550;23;20182;-75
2023/03/25 05:14:44;;;;;;;39.27;18.57;;;12.70;78.20;;;;;;6062798;23;20174;-75
2023/03/25 05:17:12;;;;;;;35.23;18.67;;;12.80;78.30;;;;;;6064240;23;20178;-75
2023/03/25 05:19:44;;;;;;;34.33;17.97;;;12.90;78.40;;;;;;6065604;23;20174;-75
2023/03/25 05:22:13;;;;;;;34.33;17.67;;;12.90;78.40;;;;;;6064061;23;20617;-75
2023/03/25 05:24:44;;;;;;;31.50;17.97;;;13.00;78.40;;;;;;6063373;23;20206;-75
2023/03/25 05:27:12;;;;;;;35.00;17.90;;;13.00;78.40;;;;;;6064924;23;20190;-75
2023/03/25 05:29:43;;;;;;;36.13;18.57;;;13.10;78.50;;;;;;6064905;23;20218;-74
2023/03/25 05:32:16;;;;;;;34.10;19.10;;;13.10;78.60;;;;;;6062575;23;20163;-76
2023/03/25 05:34:45;;;;;;;30.90;17.50;;;13.20;78.50;;;;;;6066463;23;20580;-75
2023/03/25 05:37:13;;;;;;;33.40;17.93;;;13.30;78.60;;;;;;6065144;23;20225;-75
2023/03/25 05:39:42;;;;;;;44.20;19.57;;;13.30;78.60;;;;;;6064797;23;20755;-76
2023/03/25 05:42:12;;;;;;;37.73;19.10;;;13.50;78.60;;;;;;6066810;23;20163;-75
2023/03/25 05:44:45;;;;;;;40.63;20.63;;;13.50;78.60;;;;;;6067221;23;20234;-76
2023/03/25 05:47:15;;;;;;;40.03;19.77;;;13.70;78.60;;;;;;6065277;23;20604;-75
2023/03/25 05:49:43;;;;;;;40.77;21.33;;;13.80;78.60;;;;;;6066205;23;20246;-75
2023/03/25 05:52:12;;;;;;;47.90;22.23;;;13.90;78.60;;;;;;6065234;23;20178;-75
2023/03/25 05:54:40;;;;;;;42.73;20.03;;;14.00;79.20;;;;;;6067888;23;20182;-76
2023/03/25 05:57:09;;;;;;;42.10;20.03;;;14.20;78.30;;;;;;6063996;23;20213;-75
2023/03/25 05:59:39;;;;;;;37.53;21.43;;;14.30;78.10;;;;;;6065267;23;20171;-76
2023/03/25 06:02:11;;;;;;;37.27;19.37;;;14.40;78.10;;;;;;6061958;23;20170;-75
2023/03/25 06:04:41;;;;;;;38.53;19.03;;;14.40;77.90;;;;;;6067573;23;20159;-75
2023/03/25 06:07:13;;;;;;;36.13;18.60;;;14.50;77.80;;;;;;6065584;23;20233;-75
2023/03/25 06:09:44;;;;;;;32.03;18.33;;;14.60;77.90;;;;;;6067835;23;20183;-76
2023/03/25 06:12:14;;;;;;;37.93;19.20;;;14.70;77.90;;;;;;6067533;23;20166;-76
2023/03/25 06:14:44;;;;;;;29.70;17.63;;;14.70;78.00;;;;;;6068751;23;20543;-75
2023/03/25 06:17:13;;;;;;;27.07;14.83;;;14.70;78.10;;;;;;6061100;23;20163;-75
2023/03/25 06:19:42;;;;;;;24.60;14.40;;;14.70;78.00;;;;;;6067847;23;20608;-75
2023/03/25 06:22:12;;;;;;;24.80;14.10;;;14.80;77.90;;;;;;6067894;23;20257;-74
2023/03/25 06:24:41;;;;;;;28.47;14.70;;;14.90;78.00;;;;;;6066262;23;20216;-74
2023/03/25 06:27:14;;;;;;;23.57;13.83;;;14.90;77.70;;;;;;6066445;23;20178;-74
2023/03/25 06:29:43;;;;;;;22.73;13.03;;;15.00;77.70;;;;;;6065832;23;20270;-74
2023/03/25 06:32:13;;;;;;;23.13;13.00;;;15.10;77.70;;;;;;6065996;23;20657;-74
2023/03/25 06:34:43;;;;;;;19.80;12.07;;;15.20;77.60;;;;;;6067286;23;20174;-74
2023/03/25 06:37:11;;;;;;;19.33;11.53;;;15.30;77.50;;;;;;6066702;23;20691;-74
2023/03/25 06:39:40;;;;;;;22.93;12.40;;;15.30;77.50;;;;;;6067449;23;20612;-74
2023/03/25 06:42:08;;;;;;;26.73;10.93;;;15.40;77.40;;;;;;6065123;23;20175;-75
2023/03/25 06:44:37;;;;;;;23.70;11.70;;;15.50;77.10;;;;;;6068704;23;20234;-76
2023/03/25 06:47:05;;;;;;;21.43;10.63;;;15.60;77.00;;;;;;6066721;23;20175;-74
2023/03/25 06:49:34;;;;;;;18.60;11.10;;;15.70;77.00;;;;;;6064198;23;20191;-75
2023/03/25 06:52:07;;;;;;;18.00;10.73;;;15.80;76.90;;;;;;6066400;23;20230;-74
2023/03/25 06:54:35;;;;;;;22.63;12.80;;;15.90;76.80;;;;;;6068294;23;20597;-74
2023/03/25 06:57:04;;;;;;;20.30;11.53;;;16.00;76.60;;;;;;6066934;23;20254;-74
2023/03/25 06:59:32;;;;;;;21.90;11.53;;;16.00;76.40;;;;;;6062740;23;20170;-74
2023/03/25 07:02:01;;;;;;;21.80;10.83;;;16.10;76.40;;;;;;6066422;23;20198;-74
2023/03/25 07:04:30;;;;;;;22.50;12.30;;;16.10;76.00;;;;;;6067023;23;20181;-74
2023/03/25 07:06:58;;;;;;;16.03;9.97;;;16.20;75.90;;;;;;6068352;23;20175;-74
2023/03/25 07:09:28;;;;;;;18.03;9.87;;;16.30;75.80;;;;;;6065494;23;20246;-74
2023/03/25 07:11:56;;;;;;;21.50;10.30;;;16.40;75.50;;;;;;6067284;23;20179;-74
2023/03/25 07:14:24;;;;;;;22.60;10.70;;;16.40;75.00;;;;;;6068388;23;20174;-74
2023/03/25 07:16:53;;;;;;;16.27;10.47;;;16.50;75.10;;;;;;6065917;23;20230;-75
2023/03/25 07:19:21;;;;;;;17.67;11.27;;;16.60;74.80;;;;;;6067352;23;20179;-74
2023/03/25 07:21:49;;;;;;;18.03;10.77;;;16.70;74.40;;;;;;6068321;23;20178;-74
2023/03/25 07:24:18;;;;;;;21.20;10.83;;;16.80;74.00;;;;;;6067731;23;20174;-75
2023/03/25 07:26:50;;;;;;;19.43;10.10;;;16.80;74.00;;;;;;6066975;23;20183;-75
2023/03/25 07:29:20;;;;;;;17.30;10.60;;;16.90;73.80;;;;;;6068220;23;20186;-74
2023/03/25 07:31:52;;;;;;;15.93;9.03;;;17.00;73.60;;;;;;6067050;23;20175;-75
2023/03/25 07:34:28;;;;;;;16.87;8.50;;;17.10;73.50;;;;;;6065452;23;20186;-75
2023/03/25 07:36:57;;;;;;;16.87;10.30;;;17.10;73.00;;;;;;6066395;23;20194;-75
2023/03/25 07:39:25;;;;;;;17.63;10.23;;;17.20;72.50;;;;;;6067587;23;20846;-74
2023/03/25 07:41:55;;;;;;;19.93;11.60;;;17.20;72.10;;;;;;6065191;23;20588;-75
2023/03/25 07:44:24;;;;;;;20.20;10.20;;;17.30;72.20;;;;;;6065364;23;20241;-74
2023/03/25 07:46:52;;;;;;;17.53;9.83;;;17.40;72.30;;;;;;6061927;23;20178;-74
2023/03/25 07:49:20;;;;;;;18.13;9.60;;;17.40;71.90;;;;;;6057095;23;20183;-75
2023/03/25 07:51:49;;;;;;;17.80;9.67;;;17.50;71.50;;;;;;6062108;23;20181;-75
2023/03/25 07:54:19;;;;;;;19.20;9.63;;;17.50;71.30;;;;;;6063937;23;20200;-75
2023/03/25 07:56:47;;;;;;;19.67;9.63;;;17.60;71.20;;;;;;6061352;23;20202;-75
2023/03/25 07:59:17;;;;;;;17.97;10.60;;;17.80;71.10;;;;;;6065473;23;20237;-75
2023/03/25 08:01:46;;;;;;;20.73;10.83;;;17.80;71.10;;;;;;6062278;23;20246;-74
2023/03/25 08:04:14;;;;;;;16.40;9.67;;;18.00;71.10;;;;;;6063977;23;20576;-74
2023/03/25 08:06:42;;;;;;;20.70;9.90;;;18.10;70.90;;;;;;6065772;23;20226;-75
2023/03/25 08:09:11;;;;;;;17.10;9.83;;;18.10;69.90;;;;;;6066189;23;20511;-73
2023/03/25 08:11:39;;;;;;;18.90;9.20;;;18.30;69.70;;;;;;6065489;23;20194;-74
2023/03/25 08:14:12;;;;;;;16.67;9.73;;;18.40;69.30;;;;;;6061809;23;20186;-76
2023/03/25 08:16:41;;;;;;;16.80;9.70;;;18.50;69.30;;;;;;6060003;23;20167;-74
2023/03/25 08:19:10;;;;;;;13.63;9.03;;;18.60;69.30;;;;;;6063714;23;20179;-74
2023/03/25 08:21:38;;;;;;;15.50;8.97;;;18.70;69.10;;;;;;6062049;23;20226;-75
2023/03/25 08:24:07;;;;;;;14.40;7.47;;;18.80;67.80;;;;;;6062117;23;20631;-74
2023/03/25 08:26:36;;;;;;;11.77;6.27;;;18.90;66.90;;;;;;6065072;23;20258;-75
2023/03/25 08:29:06;;;;;;;13.47;7.80;;;19.00;66.10;;;;;;6064523;23;20182;-74
2023/03/25 08:31:37;;;;;;;13.20;7.93;;;19.10;66.40;;;;;;6064854;23;20189;-75
2023/03/25 08:34:07;;;;;;;15.37;6.57;;;19.20;66.60;;;;;;6064017;23;20605;-75
2023/03/25 08:36:43;;;;;;;11.57;6.33;;;19.30;66.60;;;;;;6066121;23;20182;-75
2023/03/25 08:39:11;;;;;;;13.37;7.50;;;19.30;66.10;;;;;;6061371;23;20543;-75
2023/03/25 08:41:40;;;;;;;12.40;8.00;;;19.40;66.40;;;;;;6066229;23;20308;-74
2023/03/25 08:44:08;;;;;;;16.40;8.80;;;19.40;65.00;;;;;;6064722;23;20178;-74
2023/03/25 08:46:37;;;;;;;14.97;8.93;;;19.50;65.50;;;;;;6066191;23;20628;-75
2023/03/25 08:49:09;;;;;;;18.80;10.10;;;19.50;65.70;;;;;;6065194;23;20372;-75
2023/03/25 08:51:37;;;;;;;16.10;8.70;;;19.50;65.00;;;;;;6062058;23;20202;-75
2023/03/25 08:54:05;;;;;;;17.63;9.67;;;19.50;65.40;;;;;;6062546;23;20522;-75
2023/03/25 08:56:34;;;;;;;14.57;9.10;;;19.60;65.10;;;;;;6063239;23;20253;-75
2023/03/25 08:59:02;;;;;;;15.50;7.80;;;19.60;65.10;;;;;;6065204;23;20162;-75
2023/03/25 09:01:31;;;;;;;15.40;8.67;;;19.60;64.90;;;;;;6064164;23;20170;-75
2023/03/25 09:03:59;;;;;;;13.90;8.40;;;19.70;64.90;;;;;;6063762;23;20189;-74
2023/03/25 09:10:20;;;;;;;15.07;9.00;;;19.80;64.70;;;;;;6022086;23;20198;-72
2023/03/25 09:12:48;;;;;;;14.93;8.03;;;19.90;63.90;;;;;;6061619;23;20627;-70
2023/03/25 09:15:17;;;;;;;15.30;8.23;;;20.00;62.80;;;;;;6063333;23;20179;-74
2023/03/25 09:17:45;;;;;;;12.80;8.00;;;20.00;62.40;;;;;;6060373;23;20187;-75
2023/03/25 09:20:14;;;;;;;15.10;7.68;;;20.20;62.80;;;;;;6058633;23;20245;-75
2023/03/25 09:22:43;;;;;;;11.02;6.68;;;20.20;62.20;;;;;;6060122;23;20178;-75
2023/03/25 09:25:12;;;;;;;12.43;6.63;;;20.30;60.20;;;;;;6063682;23;20178;-76
2023/03/25 09:27:42;;;;;;;14.23;8.10;;;20.30;59.90;;;;;;6063667;23;20178;-77
2023/03/25 09:30:11;;;;;;;15.50;7.30;;;20.40;60.10;;;;;;6063316;23;20632;-75
2023/03/25 09:32:40;;;;;;;13.45;8.30;;;20.40;59.50;;;;;;6063700;23;20197;-76
2023/03/25 09:35:08;;;;;;;17.98;8.27;;;20.50;59.20;;;;;;6066220;23;20178;-75
2023/03/25 09:37:37;;;;;;;12.63;7.65;;;20.50;58.80;;;;;;6063055;23;20182;-76
2023/03/25 09:40:07;;;;;;;15.35;6.78;;;20.60;58.80;;;;;;6063308;23;20226;-76
2023/03/25 09:42:57;;;;;;;12.10;6.75;;;20.60;58.40;;;;;;6062517;23;20182;-77
2023/03/25 09:45:32;;;;;;;11.43;7.13;;;20.60;57.20;;;;;;6064062;23;20159;-76
2023/03/25 09:48:05;;;;;;;12.38;7.43;;;20.60;57.50;;;;;;6064146;23;20226;-76
2023/03/25 09:50:35;;;;;;;10.40;5.38;;;20.70;57.30;;;;;;6063435;23;20214;-77
2023/03/25 09:53:08;;;;;;;13.15;7.45;;;20.80;56.70;;;;;;6062388;23;20171;-77
2023/03/25 09:55:41;;;;;;;16.58;9.00;;;20.90;57.80;;;;;;6061398;23;20163;-76
2023/03/25 09:58:26;;;;;;;16.15;8.43;;;20.90;58.40;;;;;;6057065;23;20206;-77
2023/03/25 10:01:00;;;;;;;14.32;8.23;;;21.00;57.40;;;;;;6064318;23;20660;-75
2023/03/25 10:03:35;;;;;;;13.93;7.70;;;21.00;57.90;;;;;;6062694;23;20222;-75
2023/03/25 10:06:13;;;;;;;15.88;8.23;;;21.00;57.80;;;;;;6063976;23;20163;-74
2023/03/25 10:08:59;;;;;;;13.82;7.50;;;21.10;57.40;;;;;;6064671;23;20159;-76
2023/03/25 10:11:36;;;;;;;12.65;6.63;;;21.10;57.70;;;;;;6064832;23;20186;-75
2023/03/25 10:14:11;;;;;;;12.73;5.15;;;21.20;57.90;;;;;;6064223;23;20158;-75
2023/03/25 10:16:53;;;;;;;8.57;4.75;;;21.20;56.70;;;;;;6064653;23;20185;-76
2023/03/25 10:19:40;;;;;;;5.88;3.63;;;21.30;54.00;;;;;;6063151;23;20473;-77
2023/03/25 10:22:17;;;;;;;8.30;3.72;;;21.40;52.90;;;;;;6063715;23;20167;-75
2023/03/25 10:24:49;;;;;;;7.25;4.70;;;21.50;53.10;;;;;;6064910;23;20162;-75
2023/03/25 10:27:23;;;;;;;10.75;4.05;;;21.60;52.90;;;;;;6066315;23;20217;-75
2023/03/25 10:29:56;;;;;;;6.43;3.83;;;21.60;52.70;;;;;;6064241;23;20185;-75
2023/03/25 10:32:32;;;;;;;8.30;4.88;;;21.70;52.30;;;;;;6064451;23;20178;-77
2023/03/25 10:35:04;;;;;;;8.95;4.85;;;21.80;51.80;;;;;;6063637;23;20163;-76
2023/03/25 10:37:35;;;;;;;7.93;3.72;;;21.90;52.70;;;;;;6063681;23;20300;-74
2023/03/25 10:40:50;;;;;;;10.57;4.75;;;22.00;52.70;;;;;;6067100;23;20167;-77
2023/03/25 10:43:26;;;;;;;10.18;5.07;;;22.10;52.50;;;;;;6066355;23;20163;-71
2023/03/25 10:46:00;;;;;;;9.52;4.40;;;22.30;51.60;;;;;;6065103;23;20194;-77
2023/03/25 10:48:30;;;;;;;10.98;4.70;;;22.30;50.80;;;;;;6062910;23;20214;-75
2023/03/25 10:51:04;;;;;;;7.57;4.38;;;22.40;50.30;;;;;;6062013;23;20222;-77
2023/03/25 10:53:33;;;;;;;8.52;4.93;;;22.50;50.00;;;;;;6064705;23;20158;-77
2023/03/25 10:56:07;;;;;;;8.55;4.30;;;22.50;49.70;;;;;;6063596;23;20696;-77
2023/03/25 10:58:39;;;;;;;6.45;3.72;;;22.60;50.40;;;;;;6064423;23;20201;-78
2023/03/25 11:01:14;;;;;;;7.32;3.60;;;22.60;50.30;;;;;;6066906;23;20162;-77
2023/03/25 11:03:43;;;;;;;6.35;3.50;;;22.60;49.90;;;;;;6066323;23;20233;-78
2023/03/25 11:06:23;;;;;;;6.18;3.88;;;22.70;50.00;;;;;;6066569;23;20253;-77
2023/03/25 11:09:17;;;;;;;8.93;4.03;;;22.70;50.00;;;;;;6063446;23;20163;-77
2023/03/25 11:11:46;;;;;;;8.13;3.70;;;22.70;49.70;;;;;;6061181;23;20203;-77
2023/03/25 11:14:16;;;;;;;10.90;4.32;;;22.80;49.30;;;;;;6062517;23;20178;-78
2023/03/25 11:16:48;;;;;;;9.65;4.00;;;22.80;49.00;;;;;;6067498;23;20506;-77
2023/03/25 11:19:22;;;;;;;6.53;4.32;;;22.80;49.00;;;;;;6064889;23;20284;-76
2023/03/25 11:21:55;;;;;;;9.95;4.32;;;22.70;48.80;;;;;;6067612;23;20162;-78
2023/03/25 11:24:30;;;;;;;7.05;3.72;;;22.70;49.50;;;;;;6065086;23;20168;-78
2023/03/25 11:26:59;;;;;;;7.57;4.03;;;22.70;49.30;;;;;;6066624;23;20601;-77
2023/03/25 11:29:29;;;;;;;7.15;3.75;;;22.80;49.40;;;;;;6068078;23;20175;-77
2023/03/25 11:32:07;;;;;;;7.38;4.10;;;22.70;49.10;;;;;;6067642;23;20182;-78
2023/03/25 11:34:40;;;;;;;5.45;3.13;;;22.70;48.70;;;;;;6064063;23;20162;-77
2023/03/25 11:37:16;;;;;;;6.25;3.35;;;22.80;49.30;;;;;;6063767;23;20158;-77
2023/03/25 11:39:50;;;;;;;6.95;3.10;;;22.80;48.70;;;;;;6066121;23;20617;-78
2023/03/25 11:42:31;;;;;;;10.50;3.35;;;22.90;48.30;;;;;;6068048;23;20648;-77
2023/03/25 11:45:02;;;;;;;8.05;3.50;;;22.90;47.90;;;;;;6066447;23;20625;-78
2023/03/25 11:47:34;;;;;;;5.72;3.50;;;22.90;48.00;;;;;;6064624;23;20171;-77
2023/03/25 11:50:04;;;;;;;8.07;3.53;;;22.90;48.00;;;;;;6066136;23;20162;-77
2023/03/25 11:52:40;;;;;;;6.20;3.75;;;22.90;48.50;;;;;;6066074;23;20258;-78
2023/03/25 11:55:17;;;;;;;6.35;3.55;;;23.00;48.70;;;;;;6066718;23;20181;-77
2023/03/25 11:57:47;;;;;;;6.97;3.63;;;22.90;48.70;;;;;;6065755;23;20258;-78
2023/03/25 12:00:30;;;;;;;8.55;4.30;;;23.00;49.30;;;;;;6065067;23;20205;-77
2023/03/25 12:03:05;;;;;;;11.75;4.68;;;23.10;49.30;;;;;;6063716;23;20155;-78
2023/03/25 12:05:34;;;;;;;13.05;4.57;;;23.20;48.90;;;;;;6065592;23;20162;-77
2023/03/25 12:08:14;;;;;;;13.25;4.85;;;23.30;49.10;;;;;;6064813;23;20233;-77
2023/03/25 12:10:55;;;;;;;14.27;5.93;;;23.30;49.20;;;;;;6063707;23;20216;-80
2023/03/25 12:13:39;;;;;;;10.52;4.63;;;23.30;48.60;;;;;;6061124;23;20182;-79
2023/03/25 12:16:20;;;;;;;8.05;3.63;;;23.50;49.30;;;;;;6065619;23;20163;-77
2023/03/25 12:19:00;;;;;;;8.20;3.63;;;23.60;48.70;;;;;;6064681;23;20166;-73
2023/03/25 12:21:42;;;;;;;7.10;4.20;;;23.70;49.30;;;;;;6066587;23;20163;-74
2023/03/25 12:24:24;;;;;;;6.03;3.55;;;23.90;49.10;;;;;;6063713;23;20166;-72
2023/03/25 12:27:07;;;;;;;9.38;4.50;;;24.10;48.70;;;;;;6064819;23;20162;-73
2023/03/25 12:29:42;;;;;;;8.40;3.50;;;24.20;47.80;;;;;;6062009;23;20158;-75
2023/03/25 12:32:20;;;;;;;9.95;4.03;;;24.20;48.20;;;;;;6060809;23;20241;-75
2023/03/25 12:35:00;;;;;;;8.93;4.45;;;24.10;47.60;;;;;;6062575;23;20166;-75
2023/03/25 12:37:35;;;;;;;8.27;3.35;;;24.20;48.00;;;;;;6062651;23;20162;-74
2023/03/25 12:40:33;;;;;;;6.53;3.72;;;24.10;48.00;;;;;;6064107;23;20217;-76
2023/03/25 12:43:07;;;;;;;6.47;3.50;;;24.10;47.80;;;;;;6061015;23;20249;-74
2023/03/25 12:46:06;;;;;;;5.22;3.08;;;24.10;48.20;;;;;;6062568;23;20162;-73
2023/03/25 12:48:50;;;;;;;11.13;3.38;;;24.30;47.80;;;;;;6064955;23;20166;-73
2023/03/25 12:51:32;;;;;;;3.83;2.55;;;24.20;47.50;;;;;;6065637;23;20166;-73
2023/03/25 12:54:16;;;;;;;5.82;2.72;;;24.20;47.40;;;;;;6064649;23;20186;-73
2023/03/25 12:56:57;;;;;;;8.13;3.70;;;24.30;47.60;;;;;;6066014;23;20162;-74
2023/03/25 12:59:47;;;;;;;8.60;2.75;;;24.40;47.80;;;;;;6063823;23;20237;-72
2023/03/25 13:02:41;;;;;;;5.30;2.80;;;24.40;47.40;;;;;;6064675;23;20155;-74
2023/03/25 13:05:17;;;;;;;11.13;2.90;;;24.50;47.00;;;;;;6064395;23;20496;-75